Time;durP1;ratioP1;P1;durP2;ratioP2;P2;SDS_P1;SDS_P2;PMS_P1;PMS_P2;Temp;Humidity;BMP_temperature;BMP_pressure;BME280_temperature;BME280_humidity;BME280_pressure;Samples;Min_cycle;Max_cycle;Signal;HPM_P1;HPM_P2
2024/01/13 00:02:13;;;;;;;16.50;11.10;;;;;;;-0.40;91.46;99988.84;103008;1259;97802;-76
2024/01/13 00:04:40;;;;;;;14.80;10.50;;;;;;;-0.36;91.67;99982.23;102996;1258;138444;-76
2024/01/13 00:07:07;;;;;;;14.70;10.40;;;;;;;-0.30;91.60;99985.00;103090;1261;106640;-76
2024/01/13 00:09:34;;;;;;;16.80;11.90;;;;;;;-0.29;91.40;99993.03;103056;1255;138016;-78
2024/01/13 00:12:02;;;;;;;19.50;12.30;;;;;;;-0.29;91.35;99982.27;103081;1259;108748;-76
2024/01/13 00:14:28;;;;;;;16.90;12.20;;;;;;;-0.30;91.22;99983.64;103108;1256;97816;-76
2024/01/13 00:16:55;;;;;;;18.00;12.30;;;;;;;-0.32;91.10;99980.89;102983;1256;137718;-75
2024/01/13 00:19:23;;;;;;;16.80;11.20;;;;;;;-0.37;91.39;99982.38;103006;1256;108664;-77
2024/01/13 00:21:50;;;;;;;15.10;10.10;;;;;;;-0.39;91.27;99986.11;102969;1257;138709;-76
2024/01/13 00:24:17;;;;;;;15.10;10.30;;;;;;;-0.39;91.46;99979.97;103088;1258;107847;-77
2024/01/13 00:26:44;;;;;;;14.70;10.60;;;;;;;-0.38;91.50;99976.72;103087;1256;97876;-77
2024/01/13 00:29:12;;;;;;;14.40;9.70;;;;;;;-0.34;91.57;99985.83;103017;1259;139281;-77
2024/01/13 00:31:39;;;;;;;15.50;11.20;;;;;;;-0.31;91.35;99978.34;103118;1258;108597;-75
2024/01/13 00:34:06;;;;;;;15.10;11.10;;;;;;;-0.29;91.38;99980.73;102978;1260;138323;-76
2024/01/13 00:36:33;;;;;;;18.50;11.30;;;;;;;-0.27;91.17;99986.20;103017;1259;107591;-76
2024/01/13 00:39:01;;;;;;;16.10;11.50;;;;;;;-0.28;91.21;99979.88;103073;1257;97799;-76
2024/01/13 00:41:28;;;;;;;16.50;10.70;;;;;;;-0.30;91.23;99986.89;102986;1259;138913;-77
2024/01/13 00:43:54;;;;;;;15.90;11.20;;;;;;;-0.32;91.10;99984.83;103072;1257;106367;-78
2024/01/13 00:46:22;;;;;;;16.30;10.50;;;;;;;-0.34;91.16;99980.37;103609;1257;139394;-77
2024/01/13 00:48:48;;;;;;;13.90;9.20;;;;;;;-0.36;91.12;99977.96;103073;1258;108173;-75
2024/01/13 00:51:16;;;;;;;12.30;8.50;;;;;;;-0.37;91.20;99970.95;102945;1258;138666;-75
2024/01/13 00:53:43;;;;;;;14.90;9.20;;;;;;;-0.36;91.26;99973.16;103002;1257;111463;-76
2024/01/13 00:56:10;;;;;;;12.00;8.70;;;;;;;-0.35;91.18;99980.18;102983;1258;107082;-75
2024/01/13 00:58:37;;;;;;;14.50;9.10;;;;;;;-0.31;91.20;99979.70;102873;1259;138375;-76
2024/01/13 01:01:11;;;;;;;12.90;8.50;;;;;;;-0.29;91.26;99973.39;102988;1259;107863;-76
2024/01/13 01:03:38;;;;;;;14.60;9.60;;;;;;;-0.27;91.03;99976.81;102948;1260;138285;-76
2024/01/13 01:06:06;;;;;;;13.40;9.50;;;;;;;-0.26;91.14;99961.11;103035;1259;110857;-76
2024/01/13 01:08:33;;;;;;;13.70;9.70;;;;;;;-0.26;90.88;99960.77;103058;1260;107335;-76
2024/01/13 01:11:06;;;;;;;13.60;10.50;;;;;;;-0.27;90.88;99955.46;102996;1259;137731;-75
2024/01/13 01:13:33;;;;;;;14.10;9.80;;;;;;;-0.28;90.97;99948.27;103015;1255;107451;-75
2024/01/13 01:16:00;;;;;;;13.10;9.50;;;;;;;-0.28;91.14;99953.76;102254;1258;1002867;-75
2024/01/13 01:18:26;;;;;;;15.30;9.10;;;;;;;-0.28;91.11;99954.27;103051;1258;111561;-75
2024/01/13 01:21:09;;;;;;;14.50;9.00;;;;;;;-0.27;91.10;99954.44;103062;1260;107212;-76
2024/01/13 01:23:37;;;;;;;14.90;8.70;;;;;;;-0.24;91.11;99957.88;103028;1260;97849;-76
2024/01/13 01:26:04;;;;;;;11.10;7.90;;;;;;;-0.21;91.14;99953.10;103061;1258;108906;-76
2024/01/13 01:28:31;;;;;;;12.20;8.50;;;;;;;-0.20;91.08;99952.77;103030;1259;140329;-76
2024/01/13 01:31:02;;;;;;;13.40;8.10;;;;;;;-0.17;90.89;99952.98;102581;1260;1003035;-76
2024/01/13 01:33:29;;;;;;;12.00;7.90;;;;;;;-0.13;91.02;99951.46;102965;1257;138689;-76
2024/01/13 01:35:56;;;;;;;10.70;7.50;;;;;;;-0.10;90.88;99956.43;103064;1257;97883;-75
2024/01/13 01:38:23;;;;;;;12.50;8.20;;;;;;;-0.09;90.56;99955.23;103085;1260;107716;-76
2024/01/13 01:41:08;;;;;;;12.60;8.60;;;;;;;-0.08;90.47;99955.24;102965;1260;137585;-76
2024/01/13 01:43:35;;;;;;;13.90;8.80;;;;;;;-0.08;90.28;99955.42;103060;1260;111568;-76
2024/01/13 01:46:04;;;;;;;12.90;8.90;;;;;;;-0.08;90.19;99954.39;102893;1260;137793;-75
2024/01/13 01:48:38;;;;;;;11.40;8.10;;;;;;;-0.11;90.05;99950.61;102300;1259;1003227;-76
2024/01/13 01:51:10;;;;;;;12.30;8.50;;;;;;;-0.13;89.93;99946.85;103069;1257;107605;-77
2024/01/13 01:53:38;;;;;;;12.10;7.70;;;;;;;-0.15;89.99;99950.42;103118;1257;97874;-77
2024/01/13 01:56:10;;;;;;;12.20;7.80;;;;;;;-0.15;89.95;99953.34;103141;1259;112303;-77
2024/01/13 01:58:37;;;;;;;10.30;7.10;;;;;;;-0.15;89.80;99947.53;102988;1259;138328;-76
2024/01/13 02:01:07;;;;;;;10.10;7.20;;;;;;;-0.14;89.77;99945.48;103101;1259;99076;-76
2024/01/13 02:03:34;;;;;;;8.70;6.40;;;;;;;-0.12;89.67;99945.83;102884;1257;138306;-77
2024/01/13 02:06:02;;;;;;;9.40;6.90;;;;;;;-0.10;89.38;99940.54;103072;1257;97779;-78
2024/01/13 02:08:30;;;;;;;10.60;6.10;;;;;;;-0.11;89.34;99934.39;103110;1258;112449;-78
2024/01/13 02:11:06;;;;;;;9.70;7.00;;;;;;;-0.09;89.11;99932.00;102968;1256;138656;-77
2024/01/13 02:13:33;;;;;;;11.20;7.60;;;;;;;-0.07;89.19;99937.65;103145;1256;99115;-76
2024/01/13 02:16:00;;;;;;;10.80;7.50;;;;;;;-0.04;89.13;99938.00;102962;1261;137541;-76
2024/01/13 02:18:27;;;;;;;14.00;8.40;;;;;;;-0.04;88.86;99926.89;103120;1260;97685;-75
2024/01/13 02:21:05;;;;;;;12.90;8.30;;;;;;;-0.07;88.64;99926.54;103055;1258;111926;-77
2024/01/13 02:23:34;;;;;;;11.90;7.60;;;;;;;-0.10;88.67;99924.64;102831;1259;137714;-75
2024/01/13 02:26:01;;;;;;;11.00;7.70;;;;;;;-0.14;88.68;99920.02;103098;1259;97802;-76
2024/01/13 02:28:28;;;;;;;8.10;6.60;;;;;;;-0.12;88.71;99915.92;102874;1257;139103;-77
2024/01/13 02:31:10;;;;;;;8.90;6.30;;;;;;;-0.11;88.69;99913.02;103110;1257;97803;-76
2024/01/13 02:33:37;;;;;;;9.00;6.50;;;;;;;-0.09;88.72;99903.45;102951;1257;138422;-75
2024/01/13 02:36:07;;;;;;;8.00;5.90;;;;;;;-0.06;88.49;99902.61;102990;1260;106738;-76
2024/01/13 02:38:34;;;;;;;9.00;6.40;;;;;;;-0.05;88.36;99900.57;103138;1258;97923;-75
2024/01/13 02:41:04;;;;;;;10.40;6.80;;;;;;;-0.04;88.20;99895.79;102969;1258;137314;-76
2024/01/13 02:43:31;;;;;;;9.70;6.90;;;;;;;-0.04;88.03;99894.08;103038;1259;97840;-75
2024/01/13 02:45:58;;;;;;;10.20;7.30;;;;;;;-0.05;88.05;99888.60;102901;1257;138921;-76
2024/01/13 02:48:25;;;;;;;12.60;7.70;;;;;;;-0.06;88.02;99890.65;103049;1258;107951;-76
2024/01/13 02:51:06;;;;;;;10.60;7.30;;;;;;;-0.10;88.12;99879.87;103129;1256;97759;-77
2024/01/13 02:53:33;;;;;;;10.00;6.80;;;;;;;-0.12;88.03;99880.71;102992;1257;245673;-77
2024/01/13 02:56:00;;;;;;;11.00;6.80;;;;;;;-0.12;88.13;99872.69;103091;1260;97877;-76
2024/01/13 02:58:27;;;;;;;7.90;6.40;;;;;;;-0.12;88.14;99875.77;103068;1257;138263;-76
2024/01/13 03:01:08;;;;;;;10.10;6.60;;;;;;;-0.11;88.22;99863.80;102910;1257;107276;-76
2024/01/13 03:03:35;;;;;;;11.00;7.40;;;;;;;-0.09;88.09;99859.38;102962;1255;138698;-76
2024/01/13 03:06:03;;;;;;;10.20;7.50;;;;;;;-0.08;88.22;99854.59;102940;1258;108771;-76
2024/01/13 03:08:31;;;;;;;13.70;8.40;;;;;;;-0.08;88.04;99854.76;103109;1258;97704;-74
2024/01/13 03:11:07;;;;;;;11.50;7.60;;;;;;;-0.08;87.99;99854.93;102979;1255;136350;-75
2024/01/13 03:13:34;;;;;;;11.50;7.60;;;;;;;-0.12;88.07;99850.81;102960;1258;107874;-73
2024/01/13 03:16:01;;;;;;;11.30;7.80;;;;;;;-0.13;88.19;99852.52;102887;1259;138381;-75
2024/01/13 03:18:28;;;;;;;9.80;7.60;;;;;;;-0.12;88.26;99857.14;102979;1270;108324;-76
2024/01/13 03:21:06;;;;;;;11.80;7.30;;;;;;;-0.11;88.26;99862.10;103043;1257;97861;-76
2024/01/13 03:23:33;;;;;;;10.60;7.00;;;;;;;-0.11;88.33;99856.63;102930;1259;138004;-74
2024/01/13 03:26:00;;;;;;;9.80;5.90;;;;;;;-0.09;88.28;99856.30;102904;1257;107199;-76
2024/01/13 03:28:27;;;;;;;10.00;7.40;;;;;;;-0.08;88.34;99855.27;102897;1257;138325;-75
2024/01/13 03:31:07;;;;;;;13.20;8.10;;;;;;;-0.03;88.40;99858.36;102979;1258;106564;-75
2024/01/13 03:33:34;;;;;;;11.90;7.70;;;;;;;-0.02;88.27;99850.67;102904;1260;139560;-75
2024/01/13 03:36:01;;;;;;;12.60;8.80;;;;;;;-0.02;88.19;99853.92;103521;1258;112074;-76
2024/01/13 03:38:29;;;;;;;13.60;9.20;;;;;;;-0.04;88.19;99860.92;103027;1257;107141;-76
2024/01/13 03:41:07;;;;;;;14.00;9.60;;;;;;;-0.08;88.21;99851.52;102881;1260;138348;-77
2024/01/13 03:43:34;;;;;;;12.40;8.40;;;;;;;-0.09;88.31;99861.59;103059;1260;109103;-76
2024/01/13 03:46:03;;;;;;;12.20;8.60;;;;;;;-0.10;88.48;99863.98;102873;1257;139011;-76
2024/01/13 03:48:30;;;;;;;12.50;8.60;;;;;;;-0.10;88.52;99867.40;102989;1257;110075;-76
2024/01/13 03:50:57;;;;;;;12.40;8.70;;;;;;;-0.10;88.68;99865.17;103006;1257;106088;-76
2024/01/13 03:53:24;;;;;;;12.70;9.70;;;;;;;-0.08;88.69;99860.73;103012;1257;138403;-77
2024/01/13 03:55:51;;;;;;;17.00;9.00;;;;;;;-0.08;88.66;99856.46;103139;1257;107403;-77
2024/01/13 03:58:18;;;;;;;13.10;9.60;;;;;;;-0.07;88.69;99848.61;102995;1259;138825;-77
2024/01/13 04:00:45;;;;;;;13.30;9.30;;;;;;;-0.06;88.79;99840.40;103147;1256;109337;-76
2024/01/13 04:03:15;;;;;;;14.50;9.30;;;;;;;-0.05;88.82;99839.04;102978;1260;140117;-76
2024/01/13 04:05:42;;;;;;;12.60;9.50;;;;;;;-0.01;88.88;99840.94;103112;1257;97720;-76
2024/01/13 04:08:09;;;;;;;14.40;10.60;;;;;;;0.00;88.72;99837.53;103075;1257;107942;-76
2024/01/13 04:10:37;;;;;;;15.70;11.10;;;;;;;0.01;88.71;99839.43;103744;1257;137988;-76
2024/01/13 04:13:04;;;;;;;16.30;11.50;;;;;;;-0.02;88.53;99839.73;104006;1256;110601;-77
2024/01/13 04:15:32;;;;;;;17.40;11.10;;;;;;;-0.04;88.67;99841.27;102944;1257;137986;-76
2024/01/13 04:17:59;;;;;;;15.70;10.30;;;;;;;-0.05;88.90;99841.77;103117;1257;98338;-77
2024/01/13 04:20:26;;;;;;;14.60;10.40;;;;;;;-0.06;89.00;99843.66;102318;1260;1002729;-77
2024/01/13 04:22:53;;;;;;;14.10;10.40;;;;;;;-0.04;89.18;99842.98;102969;1258;139232;-76
2024/01/13 04:25:20;;;;;;;15.60;10.50;;;;;;;-0.03;89.06;99849.81;103085;1259;111739;-77
2024/01/13 04:27:48;;;;;;;13.60;9.90;;;;;;;-0.02;89.18;99852.71;103020;1257;138716;-77
2024/01/13 04:30:17;;;;;;;14.50;10.20;;;;;;;-0.01;89.24;99851.70;103107;1260;97818;-76
2024/01/13 04:32:44;;;;;;;15.20;10.30;;;;;;;0.04;89.23;99861.65;103050;1257;107539;-76
2024/01/13 04:35:12;;;;;;;16.90;10.30;;;;;;;0.04;89.21;99867.98;103005;1255;139931;-74
2024/01/13 04:37:39;;;;;;;14.10;10.30;;;;;;;0.07;89.27;99872.60;103107;1258;110111;-74
2024/01/13 04:40:08;;;;;;;14.30;10.80;;;;;;;0.11;89.14;99871.08;102207;1259;1003013;-74
2024/01/13 04:42:35;;;;;;;17.40;11.50;;;;;;;0.11;89.34;99868.34;102914;1256;1002572;-74
2024/01/13 04:45:02;;;;;;;19.70;12.70;;;;;;;0.12;89.10;99866.29;103083;1256;107431;-75
2024/01/13 04:47:29;;;;;;;17.10;12.00;;;;;;;0.11;88.96;99861.33;102280;1256;1003507;-75
2024/01/13 04:49:56;;;;;;;17.90;12.20;;;;;;;0.07;89.03;99861.84;102361;1257;1002862;-75
2024/01/13 04:52:24;;;;;;;16.40;10.90;;;;;;;0.05;89.24;99862.85;102992;1255;138911;-74
2024/01/13 04:54:51;;;;;;;14.90;10.90;;;;;;;0.04;89.18;99864.39;103022;1255;98362;-75
2024/01/13 04:57:17;;;;;;;17.10;11.50;;;;;;;0.00;89.45;99854.64;102989;1256;138365;-75
2024/01/13 04:59:45;;;;;;;16.20;11.20;;;;;;;0.05;89.50;99857.21;103014;1255;97884;-74
2024/01/13 05:02:12;;;;;;;12.90;9.90;;;;;;;0.06;89.47;99852.94;103051;1257;110241;-74
2024/01/13 05:04:39;;;;;;;16.60;10.30;;;;;;;0.05;89.26;99856.70;102832;1255;139411;-75
2024/01/13 05:07:07;;;;;;;13.40;10.20;;;;;;;0.07;89.49;99858.42;103062;1256;97804;-74
2024/01/13 05:09:34;;;;;;;15.90;10.60;;;;;;;0.08;89.43;99856.88;102973;1260;139059;-75
2024/01/13 05:12:01;;;;;;;14.10;10.30;;;;;;;0.09;89.43;99854.48;103080;1258;97851;-74
2024/01/13 05:14:29;;;;;;;14.60;9.60;;;;;;;0.11;89.47;99855.17;103065;1258;109182;-76
2024/01/13 05:16:55;;;;;;;13.60;10.10;;;;;;;0.11;89.41;99859.80;102926;1256;138420;-74
2024/01/13 05:19:22;;;;;;;12.30;9.30;;;;;;;0.11;89.49;99858.08;103036;1258;98375;-76
2024/01/13 05:21:50;;;;;;;11.80;9.80;;;;;;;0.12;89.62;99856.38;103349;1256;137814;-74
2024/01/13 05:24:17;;;;;;;15.00;10.50;;;;;;;0.10;89.70;99860.98;103158;1255;97678;-74
2024/01/13 05:26:44;;;;;;;14.90;10.90;;;;;;;0.08;89.78;99862.17;103059;1259;111398;-76
2024/01/13 05:29:11;;;;;;;17.80;11.60;;;;;;;0.08;89.82;99867.98;102988;1258;137715;-75
2024/01/13 05:31:38;;;;;;;14.10;11.00;;;;;;;0.05;89.92;99874.99;103075;1259;97826;-76
2024/01/13 05:34:05;;;;;;;12.10;9.80;;;;;;;0.03;89.87;99870.88;102981;1256;138201;-74
2024/01/13 05:36:32;;;;;;;12.50;9.40;;;;;;;0.01;89.87;99876.00;103150;1258;97808;-76
2024/01/13 05:38:59;;;;;;;12.30;9.00;;;;;;;0.02;90.15;99878.91;103135;1258;110607;-76
2024/01/13 05:41:26;;;;;;;11.60;8.70;;;;;;;0.05;90.15;99878.75;102958;1259;138788;-76
2024/01/13 05:43:53;;;;;;;12.50;9.40;;;;;;;0.08;90.09;99885.09;103076;1257;97678;-75
2024/01/13 05:46:20;;;;;;;13.20;9.60;;;;;;;0.10;90.07;99874.31;102874;1257;138347;-76
2024/01/13 05:48:47;;;;;;;12.80;9.80;;;;;;;0.10;90.12;99882.19;103052;1256;97697;-76
2024/01/13 05:51:14;;;;;;;13.90;10.30;;;;;;;0.09;90.18;99883.03;102960;1255;138794;-75
2024/01/13 05:53:42;;;;;;;13.40;10.00;;;;;;;0.05;90.32;99884.05;103075;1256;107847;-76
2024/01/13 05:56:09;;;;;;;13.90;10.10;;;;;;;0.02;90.35;99879.94;103138;1257;98041;-76
2024/01/13 05:58:36;;;;;;;12.70;9.40;;;;;;;-0.01;90.58;99881.79;103021;1257;138261;-75
2024/01/13 06:01:02;;;;;;;13.00;9.60;;;;;;;-0.04;90.63;99880.06;103087;1259;97829;-75
2024/01/13 06:03:29;;;;;;;12.10;9.40;;;;;;;-0.05;90.74;99881.26;103016;1258;140257;-75
2024/01/13 06:05:57;;;;;;;13.20;9.80;;;;;;;-0.03;91.00;99874.42;103051;1259;106627;-75
2024/01/13 06:08:23;;;;;;;14.50;9.60;;;;;;;0.00;91.19;99872.58;102979;1256;98326;-75
2024/01/13 06:10:51;;;;;;;12.30;9.30;;;;;;;0.01;90.94;99872.07;102970;1256;137952;-75
2024/01/13 06:13:18;;;;;;;12.70;9.70;;;;;;;0.02;91.10;99869.34;103099;1256;97847;-76
2024/01/13 06:15:45;;;;;;;13.50;9.30;;;;;;;0.03;91.03;99875.16;102211;1256;1002903;-75
2024/01/13 06:18:13;;;;;;;13.60;9.50;;;;;;;0.01;91.04;99866.09;103071;1256;107489;-76
2024/01/13 06:20:40;;;;;;;11.50;8.30;;;;;;;0.03;90.97;99864.04;103109;1256;97787;-76
2024/01/13 06:23:07;;;;;;;12.40;9.20;;;;;;;0.02;91.13;99868.83;102951;1256;137991;-76
2024/01/13 06:25:34;;;;;;;11.50;8.60;;;;;;;0.03;91.07;99867.13;103079;1256;97794;-76
2024/01/13 06:28:01;;;;;;;11.90;9.00;;;;;;;0.05;91.08;99870.72;102972;1256;137978;-76
2024/01/13 06:30:28;;;;;;;13.60;8.70;;;;;;;0.05;91.06;99867.64;102996;1257;107381;-75
2024/01/13 06:32:55;;;;;;;14.00;9.50;;;;;;;0.03;91.00;99871.05;103125;1255;97796;-77
2024/01/13 06:35:22;;;;;;;12.70;9.20;;;;;;;0.05;90.99;99873.27;102966;1257;138016;-76
2024/01/13 06:37:49;;;;;;;12.60;8.90;;;;;;;0.06;91.09;99869.02;103107;1256;97804;-75
2024/01/13 06:40:16;;;;;;;12.70;9.20;;;;;;;0.07;91.03;99869.36;103028;1256;139709;-76
2024/01/13 06:42:43;;;;;;;11.30;8.60;;;;;;;0.07;90.95;99867.30;103100;1256;107641;-77
2024/01/13 06:45:11;;;;;;;12.30;8.60;;;;;;;0.08;90.94;99873.80;103111;1257;97848;-76
2024/01/13 06:47:38;;;;;;;14.90;9.70;;;;;;;0.10;90.92;99876.55;103154;1256;107240;-76
2024/01/13 06:50:06;;;;;;;12.80;8.90;;;;;;;0.14;91.04;99882.19;103081;1256;97713;-75
2024/01/13 06:52:33;;;;;;;15.20;9.40;;;;;;;0.15;90.89;99883.57;103018;1256;138188;-76
2024/01/13 06:55:00;;;;;;;13.80;9.10;;;;;;;0.17;90.85;99882.02;103077;1256;107137;-76
2024/01/13 06:57:27;;;;;;;11.10;8.50;;;;;;;0.18;91.04;99885.14;103007;1256;138488;-74
2024/01/13 06:59:53;;;;;;;12.30;9.20;;;;;;;0.18;90.88;99881.53;103089;1256;108303;-75
2024/01/13 07:02:20;;;;;;;14.60;10.10;;;;;;;0.18;90.75;99881.35;103138;1257;97819;-75
2024/01/13 07:04:50;;;;;;;13.10;9.40;;;;;;;0.18;90.72;99884.61;103040;1255;139936;-75
2024/01/13 07:07:17;;;;;;;14.90;10.40;;;;;;;0.19;90.73;99885.98;103183;1255;107368;-75
2024/01/13 07:09:44;;;;;;;17.10;10.40;;;;;;;0.19;90.88;99892.84;102967;1258;137851;-75
2024/01/13 07:12:11;;;;;;;19.90;12.40;;;;;;;0.17;90.56;99890.41;102384;1256;1002896;-76
2024/01/13 07:14:38;;;;;;;18.70;10.90;;;;;;;0.13;90.59;99895.35;103050;1256;97842;-76
2024/01/13 07:17:06;;;;;;;15.90;10.50;;;;;;;0.13;90.79;99899.46;102988;1256;138690;-76
2024/01/13 07:19:36;;;;;;;18.30;10.70;;;;;;;0.14;90.81;99902.88;103030;1258;107124;-76
2024/01/13 07:22:04;;;;;;;16.20;10.40;;;;;;;0.15;90.99;99903.39;102891;1256;138443;-75
2024/01/13 07:24:31;;;;;;;17.40;10.30;;;;;;;0.17;91.07;99904.95;103015;1256;107928;-76
2024/01/13 07:26:58;;;;;;;13.70;10.10;;;;;;;0.21;91.17;99901.56;103043;1258;97816;-76
2024/01/13 07:29:25;;;;;;;14.50;10.40;;;;;;;0.26;91.15;99901.05;102881;1258;139659;-76
2024/01/13 07:31:52;;;;;;;16.10;10.50;;;;;;;0.25;90.95;99899.34;103023;1258;107700;-77
2024/01/13 07:34:19;;;;;;;16.60;10.40;;;;;;;0.29;91.04;99900.38;102998;1256;138609;-77
2024/01/13 07:36:46;;;;;;;15.30;10.30;;;;;;;0.34;91.02;99907.92;103140;1258;107847;-76
2024/01/13 07:39:14;;;;;;;17.60;11.90;;;;;;;0.37;91.00;99907.43;103141;1256;97855;-76
2024/01/13 07:41:42;;;;;;;16.90;12.20;;;;;;;0.39;90.90;99908.48;103175;1259;110904;-74
2024/01/13 07:44:10;;;;;;;19.50;13.70;;;;;;;0.39;90.84;99909.33;103125;1256;108684;-77
2024/01/13 07:46:43;;;;;;;18.70;12.90;;;;;;;0.36;90.79;99915.64;103005;1256;140406;-78
2024/01/13 07:49:10;;;;;;;19.20;12.50;;;;;;;0.36;90.88;99914.95;103071;1256;107956;-74
2024/01/13 07:51:37;;;;;;;19.70;13.20;;;;;;;0.35;90.96;99911.34;102792;1256;138635;-70
2024/01/13 07:54:04;;;;;;;19.20;12.90;;;;;;;0.36;90.96;99905.54;103038;1255;110608;-70
2024/01/13 07:56:32;;;;;;;21.70;13.40;;;;;;;0.38;91.01;99903.67;102979;1257;106735;-72
2024/01/13 07:58:58;;;;;;;20.20;12.90;;;;;;;0.41;90.92;99900.61;102883;1258;139315;-72
2024/01/13 08:01:26;;;;;;;20.00;13.50;;;;;;;0.45;90.94;99905.40;102894;1255;107334;-71
2024/01/13 08:04:04;;;;;;;21.00;12.80;;;;;;;0.52;91.11;99901.98;102814;1256;138488;-74
2024/01/13 08:06:32;;;;;;;17.60;12.10;;;;;;;0.61;91.16;99901.00;102931;1258;110787;-74
2024/01/13 08:08:59;;;;;;;16.60;11.40;;;;;;;0.68;90.86;99894.16;102933;1255;106685;-72
2024/01/13 08:11:26;;;;;;;20.50;12.10;;;;;;;0.71;90.28;99887.51;103008;1256;139003;-73
2024/01/13 08:14:07;;;;;;;19.50;12.70;;;;;;;0.74;89.94;99889.58;103097;1256;107376;-79
2024/01/13 08:16:35;;;;;;;20.90;12.90;;;;;;;0.73;89.88;99882.90;103025;1256;137750;-73
2024/01/13 08:19:02;;;;;;;18.50;12.20;;;;;;;0.76;89.70;99882.05;103111;1258;111266;-72
2024/01/13 08:21:29;;;;;;;23.20;13.60;;;;;;;0.76;89.63;99880.84;102904;1255;139705;-71
2024/01/13 08:24:06;;;;;;;21.70;13.30;;;;;;;0.76;89.46;99887.52;103009;1256;98194;-74
2024/01/13 08:26:33;;;;;;;17.60;12.30;;;;;;;0.75;89.27;99884.45;103016;1254;107044;-73
2024/01/13 08:29:00;;;;;;;22.40;13.40;;;;;;;0.72;89.23;99886.99;102918;1258;138897;-72
2024/01/13 08:31:27;;;;;;;21.00;13.20;;;;;;;0.69;89.04;99892.45;103085;1256;111134;-75
2024/01/13 08:34:06;;;;;;;20.70;13.30;;;;;;;0.66;89.00;99894.66;102956;1258;138473;-75
2024/01/13 08:36:33;;;;;;;20.60;13.40;;;;;;;0.66;89.00;99895.88;103077;1255;97690;-75
2024/01/13 08:39:00;;;;;;;21.60;13.30;;;;;;;0.69;89.12;99891.25;102913;1255;107395;-74
2024/01/13 08:41:27;;;;;;;19.60;12.90;;;;;;;0.67;88.97;99882.70;102788;1256;138344;-73
2024/01/13 08:44:00;;;;;;;22.10;13.40;;;;;;;0.73;89.12;99887.67;100686;1258;1003526;-71
2024/01/13 08:46:27;;;;;;;19.80;12.00;;;;;;;0.76;89.14;99893.17;102762;1256;138565;-72
2024/01/13 08:48:55;;;;;;;20.20;11.40;;;;;;;0.79;88.95;99888.89;102850;1256;99687;-69
2024/01/13 08:51:22;;;;;;;20.70;12.60;;;;;;;0.85;88.75;99897.45;102843;1256;139420;-76
2024/01/13 08:54:01;;;;;;;20.90;11.90;;;;;;;0.89;88.38;99898.83;102987;1259;97814;-69
2024/01/13 08:56:28;;;;;;;20.50;13.00;;;;;;;0.88;88.05;99900.52;103037;1258;110221;-75
2024/01/13 08:58:55;;;;;;;20.50;12.30;;;;;;;0.89;87.82;99902.09;102843;1256;138412;-75
2024/01/13 09:01:22;;;;;;;18.10;12.60;;;;;;;0.85;87.50;99903.44;102882;1258;97806;-75
2024/01/13 09:04:02;;;;;;;18.70;11.80;;;;;;;0.80;87.44;99903.78;102822;1258;137512;-75
2024/01/13 09:06:29;;;;;;;17.40;11.40;;;;;;;0.76;87.34;99909.93;102935;1259;98262;-76
2024/01/13 09:08:56;;;;;;;15.90;10.00;;;;;;;0.71;87.11;99908.89;102974;1256;112508;-76
2024/01/13 09:11:24;;;;;;;16.80;10.10;;;;;;;0.68;87.29;99914.69;102810;1255;140336;-69
2024/01/13 09:14:05;;;;;;;15.50;10.70;;;;;;;0.73;87.38;99900.86;102964;1256;97815;-72
2024/01/13 09:16:32;;;;;;;16.20;10.60;;;;;;;0.78;87.29;99895.56;102968;1256;137731;-74
2024/01/13 09:18:59;;;;;;;17.90;11.60;;;;;;;0.82;87.22;99892.48;103009;1255;97932;-71
2024/01/13 09:21:26;;;;;;;20.10;12.20;;;;;;;0.82;86.92;99889.57;102955;1256;137705;-72
2024/01/13 09:24:07;;;;;;;20.30;12.30;;;;;;;0.82;86.89;99887.52;103036;1256;107264;-73
2024/01/13 09:26:39;;;;;;;22.70;12.60;;;;;;;0.81;86.85;99879.48;102998;1259;97759;-71
2024/01/13 09:29:06;;;;;;;19.90;12.10;;;;;;;0.78;86.66;99879.30;102814;1256;138007;-72
2024/01/13 09:31:33;;;;;;;19.00;11.10;;;;;;;0.71;86.40;99878.42;103018;1256;97733;-73
2024/01/13 09:34:07;;;;;;;19.10;10.80;;;;;;;0.66;86.29;99879.96;102877;1258;138968;-72
2024/01/13 09:36:36;;;;;;;19.50;10.90;;;;;;;0.64;86.54;99870.55;103074;1256;106734;-72
2024/01/13 09:39:03;;;;;;;22.20;12.40;;;;;;;0.66;86.49;99877.56;102951;1256;97798;-72
2024/01/13 09:41:31;;;;;;;20.10;12.70;;;;;;;0.66;86.42;99875.17;102993;1256;137474;-72
2024/01/13 09:44:08;;;;;;;20.20;12.50;;;;;;;0.65;86.47;99867.47;102961;1254;97681;-72
2024/01/13 09:46:36;;;;;;;25.90;14.90;;;;;;;0.61;86.46;99865.42;102133;1255;1003465;-72
2024/01/13 09:49:05;;;;;;;26.10;15.50;;;;;;;0.60;86.47;99860.97;103009;1256;108343;-71
2024/01/13 09:51:33;;;;;;;27.30;15.50;;;;;;;0.57;86.45;99859.77;102949;1256;137857;-73
2024/01/13 09:54:09;;;;;;;25.10;14.20;;;;;;;0.53;86.44;99852.56;102997;1256;107092;-72
2024/01/13 09:56:40;;;;;;;28.70;14.20;;;;;;;0.47;86.44;99844.00;103071;1255;97829;-70
2024/01/13 09:59:07;;;;;;;26.10;14.10;;;;;;;0.43;86.41;99842.80;102980;1256;138853;-69
2024/01/13 10:01:34;;;;;;;21.40;13.30;;;;;;;0.37;86.45;99834.92;103056;1256;105405;-70
2024/01/13 10:04:01;;;;;;;22.30;13.10;;;;;;;0.36;86.55;99834.58;102917;1254;141085;-70
2024/01/13 10:06:29;;;;;;;24.10;13.70;;;;;;;0.37;86.67;99831.85;103067;1257;107828;-69
2024/01/13 10:08:56;;;;;;;24.40;15.30;;;;;;;0.38;86.76;99831.00;103101;1258;97810;-69
2024/01/13 10:11:27;;;;;;;26.50;16.40;;;;;;;0.38;86.87;99826.89;103063;1256;137466;-68
2024/01/13 10:14:04;;;;;;;30.10;16.80;;;;;;;0.38;86.72;99822.45;103119;1255;108412;-69
2024/01/13 10:16:33;;;;;;;28.90;16.60;;;;;;;0.36;86.87;99817.98;103253;1255;137622;-70
2024/01/13 10:19:01;;;;;;;26.60;17.40;;;;;;;0.33;86.81;99819.67;102373;1258;1003508;-70
2024/01/13 10:21:29;;;;;;;29.00;16.80;;;;;;;0.25;86.70;99813.34;103026;1256;138101;-67
2024/01/13 10:24:05;;;;;;;27.20;16.00;;;;;;;0.18;86.84;99817.42;103094;1258;110497;-71
2024/01/13 10:26:33;;;;;;;29.00;16.20;;;;;;;0.14;86.93;99816.71;102126;1256;1003173;-70
2024/01/13 10:29:01;;;;;;;24.30;15.10;;;;;;;0.11;87.06;99817.91;102979;1258;140601;-70
2024/01/13 10:31:30;;;;;;;25.60;14.20;;;;;;;0.10;87.43;99805.42;103151;1256;109414;-69
2024/01/13 10:34:09;;;;;;;25.40;15.20;;;;;;;0.12;87.31;99805.42;102996;1258;138997;-70
2024/01/13 10:36:38;;;;;;;23.70;14.70;;;;;;;0.12;87.34;99804.92;103128;1256;110871;-71
2024/01/13 10:39:07;;;;;;;22.50;14.90;;;;;;;0.18;87.63;99800.16;103308;1255;107611;-71
2024/01/13 10:41:38;;;;;;;25.10;15.50;;;;;;;0.20;87.45;99798.64;103001;1256;138130;-70
2024/01/13 10:44:08;;;;;;;27.30;15.90;;;;;;;0.19;87.29;99788.55;103179;1256;108603;-69
2024/01/13 10:46:37;;;;;;;23.00;15.20;;;;;;;0.17;87.14;99783.38;103010;1256;138702;-72
2024/01/13 10:49:13;;;;;;;30.30;16.90;;;;;;;0.15;87.07;99777.57;103054;1256;111184;-69
2024/01/13 10:51:42;;;;;;;;;;;;;;;0.10;87.03;99768.84;102920;1255;138167;-69
2024/01/13 10:54:10;;;;;;;24.50;16.10;;;;;;;0.02;86.97;99767.30;103266;1258;98313;-68
2024/01/13 10:56:38;;;;;;;25.10;14.60;;;;;;;-0.04;87.19;99758.39;103122;1258;107772;-70
2024/01/13 10:59:07;;;;;;;23.40;14.50;;;;;;;-0.10;87.37;99754.10;103086;1256;138695;-72
2024/01/13 11:01:35;;;;;;;25.10;14.90;;;;;;;-0.13;87.50;99746.40;103107;1255;110977;-70
2024/01/13 11:04:05;;;;;;;24.40;14.00;;;;;;;-0.15;87.64;99746.58;102989;1258;140750;-69
2024/01/13 11:06:32;;;;;;;22.60;14.20;;;;;;;-0.16;87.49;99735.47;102453;1256;1003078;-70
2024/01/13 11:09:02;;;;;;;25.70;14.90;;;;;;;-0.16;87.59;99736.32;103086;1256;108276;-71
2024/01/13 11:11:39;;;;;;;22.20;14.00;;;;;;;-0.17;87.49;99731.02;103310;1256;139904;-72
2024/01/13 11:14:18;;;;;;;21.80;14.00;;;;;;;-0.16;87.82;99730.34;102942;1256;111481;-70
2024/01/13 11:16:45;;;;;;;22.80;13.60;;;;;;;-0.15;87.83;99726.06;103050;1256;138392;-70
2024/01/13 11:19:13;;;;;;;20.80;14.30;;;;;;;-0.12;87.83;99732.05;103139;1256;97807;-69